createdAt,value
2023-02-27T00:01:16.645Z,0.09
2023-02-27T00:04:03.729Z,0.08
2023-02-27T00:06:50.551Z,0.07
2023-02-27T00:09:38.158Z,0.07
2023-02-27T00:12:27.791Z,0.06
2023-02-27T00:15:38.246Z,0.05
2023-02-27T00:18:25.094Z,0.05
2023-02-27T00:21:11.991Z,0.01
2023-02-27T00:23:58.842Z,0.03
2023-02-27T00:26:45.596Z,0.04
2023-02-27T00:29:32.411Z,0.02
2023-02-27T00:32:19.273Z,0.00
2023-02-27T00:35:08.048Z,0.01
2023-02-27T00:37:54.933Z,-0.01
2023-02-27T00:40:41.691Z,-0.03
2023-02-27T00:43:28.493Z,-0.02
2023-02-27T00:46:15.306Z,-0.03
2023-02-27T00:49:02.128Z,-0.05
2023-02-27T00:51:49.089Z,-0.06
2023-02-27T00:54:35.942Z,-0.07
2023-02-27T00:57:22.993Z,-0.06
2023-02-27T01:00:10.862Z,-0.08
2023-02-27T01:02:57.712Z,-0.08
2023-02-27T01:05:44.534Z,-0.08
2023-02-27T01:08:31.552Z,-0.10
2023-02-27T01:11:18.456Z,-0.10
2023-02-27T01:14:08.208Z,-0.11
2023-02-27T01:16:55.075Z,-0.13
2023-02-27T01:19:41.865Z,-0.11
2023-02-27T01:22:28.662Z,-0.13
2023-02-27T01:25:15.492Z,-0.14
2023-02-27T01:28:02.302Z,-0.13
2023-02-27T01:30:49.126Z,-0.15
2023-02-27T01:33:36.014Z,-0.16
2023-02-27T01:36:22.801Z,-0.17
2023-02-27T01:39:09.682Z,-0.18
2023-02-27T01:41:56.466Z,-0.17
2023-02-27T01:45:08.315Z,-0.19
2023-02-27T01:48:01.274Z,-0.20
2023-02-27T01:51:12.503Z,-0.21
2023-02-27T01:54:00.425Z,-0.22
2023-02-27T01:56:47.270Z,-0.23
2023-02-27T01:59:35.228Z,-0.24
2023-02-27T02:02:26.694Z,-0.26
2023-02-27T02:05:13.866Z,-0.25
2023-02-27T02:08:00.825Z,-0.26
2023-02-27T02:10:48.801Z,-0.27
2023-02-27T02:13:37.129Z,-0.28
2023-02-27T02:17:01.154Z,-0.28
2023-02-27T02:20:29.238Z,-0.29
2023-02-27T02:23:43.542Z,-0.28
2023-02-27T02:26:45.611Z,-0.31
2023-02-27T02:29:32.297Z,-0.35
2023-02-27T02:32:34.332Z,-0.36
2023-02-27T02:35:49.445Z,-0.39
2023-02-27T02:39:14.117Z,-0.39
2023-02-27T02:42:09.078Z,-0.41
2023-02-27T02:45:18.085Z,-0.42
2023-02-27T02:48:20.044Z,-0.43
2023-02-27T02:52:11.657Z,-0.45
2023-02-27T02:55:15.553Z,-0.46
2023-02-27T02:58:09.085Z,-0.49
2023-02-27T03:01:00.576Z,-0.51
2023-02-27T03:03:56.489Z,-0.51
2023-02-27T03:06:47.809Z,-0.51
2023-02-27T03:09:38.916Z,-0.52
2023-02-27T03:12:26.431Z,-0.54
2023-02-27T03:15:31.490Z,-0.54
2023-02-27T03:18:21.625Z,-0.53
2023-02-27T03:21:51.766Z,-0.54
2023-02-27T03:24:44.656Z,-0.56
2023-02-27T03:27:36.121Z,-0.55
2023-02-27T03:30:36.352Z,-0.57
2023-02-27T03:33:24.944Z,-0.57
2023-02-27T03:36:28.735Z,-0.57
2023-02-27T03:39:15.493Z,-0.59
2023-02-27T03:42:12.441Z,-0.58
2023-02-27T03:45:06.590Z,-0.59
2023-02-27T03:47:53.458Z,-0.60
2023-02-27T03:50:40.355Z,-0.61
2023-02-27T03:53:32.015Z,-0.61
2023-02-27T03:56:25.811Z,-0.63
2023-02-27T03:59:12.674Z,-0.64
2023-02-27T04:02:00.753Z,-0.63
2023-02-27T04:04:47.722Z,-0.66
2023-02-27T04:07:47.659Z,-0.66
2023-02-27T04:10:59.062Z,-0.66
2023-02-27T04:14:05.384Z,-0.69
2023-02-27T04:17:06.250Z,-0.69
2023-02-27T04:20:15.072Z,-0.70
2023-02-27T04:23:06.646Z,-0.71
2023-02-27T04:26:05.954Z,-0.73
2023-02-27T04:29:04.914Z,-0.72
2023-02-27T04:32:06.629Z,-0.74
2023-02-27T04:34:57.831Z,-0.76
2023-02-27T04:38:00.824Z,-0.76
2023-02-27T04:40:56.411Z,-0.78
2023-02-27T04:43:44.337Z,-0.79
2023-02-27T04:46:31.642Z,-0.79
2023-02-27T04:49:38.662Z,-0.80
2023-02-27T04:52:38.616Z,-0.80
2023-02-27T04:55:29.326Z,-0.81
2023-02-27T04:58:20.152Z,-0.81
2023-02-27T05:01:12.613Z,-0.80
2023-02-27T05:04:02.183Z,-0.82
2023-02-27T05:06:50.590Z,-0.82
2023-02-27T05:09:51.068Z,-0.81
2023-02-27T05:12:45.008Z,-0.82
2023-02-27T05:15:36.318Z,-0.82
2023-02-27T05:18:23.590Z,-0.82
2023-02-27T05:21:22.163Z,-0.83
2023-02-27T05:24:22.589Z,-0.83
2023-02-27T05:27:18.255Z,-0.82
2023-02-27T05:30:27.145Z,-0.84
2023-02-27T05:33:20.374Z,-0.85
2023-02-27T05:36:20.712Z,-0.88
2023-02-27T05:39:10.761Z,-0.88
2023-02-27T05:42:00.997Z,-0.94
2023-02-27T05:44:52.011Z,-0.90
2023-02-27T05:47:42.076Z,-0.91
2023-02-27T05:50:30.882Z,-0.92
2023-02-27T05:53:20.870Z,-0.92
2023-02-27T05:56:33.846Z,-0.90
2023-02-27T05:59:27.943Z,-0.92
2023-02-27T06:02:14.820Z,-0.94
2023-02-27T06:05:04.689Z,-0.96
2023-02-27T06:07:51.806Z,-0.97
2023-02-27T06:13:45.414Z,-1.03
2023-02-27T06:16:32.394Z,-1.04
2023-02-27T06:19:22.390Z,-0.99
2023-02-27T06:22:10.368Z,-0.98
2023-02-27T06:24:57.122Z,-1.00
2023-02-27T06:27:44.135Z,-1.00
2023-02-27T06:30:31.125Z,-1.02
2023-02-27T06:33:17.910Z,-1.02
2023-02-27T06:36:04.914Z,-1.03
2023-02-27T06:38:52.127Z,-1.07
2023-02-27T06:41:39.102Z,-1.06
2023-02-27T06:44:25.968Z,-1.08
2023-02-27T06:47:13.008Z,-1.09
2023-02-27T06:50:00.295Z,-1.05
2023-02-27T06:52:47.106Z,-1.08
2023-02-27T06:55:33.963Z,-1.11
2023-02-27T06:58:21.175Z,-1.10
2023-02-27T07:01:08.106Z,-1.14
2023-02-27T07:03:54.985Z,-1.15
2023-02-27T07:07:34.178Z,-1.15
2023-02-27T07:09:49.023Z,-1.18
2023-02-27T07:12:35.830Z,-1.17
2023-02-27T07:15:22.802Z,-1.24
2023-02-27T07:18:09.592Z,-1.21
2023-02-27T07:20:56.408Z,-1.21
2023-02-27T07:23:43.531Z,-1.22
2023-02-27T07:26:30.563Z,-1.22
2023-02-27T07:29:20.570Z,-1.23
2023-02-27T07:32:07.399Z,-1.23
2023-02-27T07:34:54.243Z,-1.21
2023-02-27T07:37:41.069Z,-1.18
2023-02-27T07:40:28.019Z,-1.20
2023-02-27T07:43:14.887Z,-1.19
2023-02-27T07:46:04.116Z,-1.17
2023-02-27T07:48:50.896Z,-1.15
2023-02-27T07:51:37.856Z,-1.16
2023-02-27T07:54:24.697Z,-1.14
2023-02-27T07:57:11.521Z,-1.15
2023-02-27T07:59:58.972Z,-1.08
2023-02-27T08:02:45.815Z,-1.08
2023-02-27T08:05:32.714Z,-1.06
2023-02-27T08:08:19.732Z,-1.05
2023-02-27T08:11:06.565Z,-0.99
2023-02-27T08:14:00.571Z,-1.03
2023-02-27T08:16:48.017Z,-0.99
2023-02-27T08:19:35.157Z,-0.92
2023-02-27T08:22:21.960Z,-0.92
2023-02-27T08:25:11.177Z,-0.89
2023-02-27T08:27:58.008Z,-0.85
2023-02-27T08:30:45.061Z,-0.81
2023-02-27T08:33:31.832Z,-0.85
2023-02-27T08:36:18.662Z,-0.75
2023-02-27T08:39:06.465Z,-0.74
2023-02-27T08:41:53.259Z,-0.73
2023-02-27T08:44:40.084Z,-0.69
2023-02-27T08:47:26.886Z,-0.62
2023-02-27T08:50:16.431Z,-0.63
2023-02-27T08:53:03.215Z,-0.65
2023-02-27T08:55:51.482Z,-0.60
2023-02-27T08:58:38.347Z,-0.53
2023-02-27T09:01:28.476Z,-0.52
2023-02-27T09:04:16.243Z,-0.47
2023-02-27T09:07:03.134Z,-0.44
2023-02-27T09:09:50.182Z,-0.44
2023-02-27T09:12:37.569Z,-0.44
2023-02-27T09:15:24.721Z,-0.40
2023-02-27T09:18:11.782Z,-0.39
2023-02-27T09:20:58.646Z,-0.38
2023-02-27T09:23:45.488Z,-0.39
2023-02-27T09:26:44.945Z,-0.38
2023-02-27T09:29:32.861Z,-0.31
2023-02-27T09:32:19.696Z,-0.31
2023-02-27T09:35:10.250Z,-0.27
2023-02-27T09:37:57.946Z,-0.26
2023-02-27T09:40:45.208Z,-0.26
2023-02-27T09:43:46.460Z,-0.22
2023-02-27T09:46:33.380Z,-0.17
2023-02-27T09:49:22.036Z,-0.15
2023-02-27T09:52:13.415Z,-0.11
2023-02-27T09:55:00.523Z,-0.11
2023-02-27T09:57:52.552Z,-0.12
2023-02-27T10:00:49.514Z,-0.08
2023-02-27T10:03:54.336Z,-0.03
2023-02-27T10:07:16.829Z,0.01
2023-02-27T10:10:09.460Z,0.03
2023-02-27T10:13:03.047Z,0.06
2023-02-27T10:15:52.664Z,0.08
2023-02-27T10:18:52.410Z,0.11
2023-02-27T10:21:47.710Z,0.13
2023-02-27T10:24:41.366Z,0.16
2023-02-27T10:27:29.860Z,0.18
2023-02-27T10:30:29.277Z,0.17
2023-02-27T10:33:34.395Z,0.22
2023-02-27T10:36:33.038Z,0.25
2023-02-27T10:39:21.233Z,0.26
2023-02-27T10:42:09.849Z,0.28
2023-02-27T10:44:56.720Z,0.30
2023-02-27T10:47:44.101Z,0.30
2023-02-27T10:50:33.352Z,0.34
2023-02-27T10:53:21.813Z,0.35
2023-02-27T10:56:15.617Z,0.38
2023-02-27T10:59:07.498Z,0.37
2023-02-27T11:01:58.481Z,0.42
2023-02-27T11:04:56.470Z,0.37
2023-02-27T11:07:43.457Z,0.44
2023-02-27T11:10:30.248Z,0.46
2023-02-27T11:13:21.992Z,0.46
2023-02-27T11:16:15.367Z,0.47
2023-02-27T11:19:23.689Z,0.51
2023-02-27T11:22:20.095Z,0.52
2023-02-27T11:25:23.142Z,0.53
2023-02-27T11:28:24.601Z,0.56
2023-02-27T11:31:17.819Z,0.58
2023-02-27T11:34:05.145Z,0.58
2023-02-27T11:36:55.966Z,0.57
2023-02-27T11:39:51.413Z,0.59
2023-02-27T11:42:44.827Z,0.60
2023-02-27T11:46:24.935Z,0.64
2023-02-27T11:48:40.872Z,0.62
2023-02-27T11:51:51.530Z,0.67
2023-02-27T11:54:42.993Z,0.70
2023-02-27T11:57:35.628Z,0.69
2023-02-27T12:00:26.368Z,0.72
2023-02-27T12:03:21.367Z,0.72
2023-02-27T12:06:18.049Z,0.76
2023-02-27T12:09:13.053Z,0.73
2023-02-27T12:12:01.970Z,0.78
2023-02-27T12:14:55.712Z,0.79
2023-02-27T12:17:54.957Z,0.81
2023-02-27T12:20:57.821Z,0.83
2023-02-27T12:23:51.752Z,0.83
2023-02-27T12:26:42.557Z,0.83
2023-02-27T12:29:36.385Z,0.82
2023-02-27T12:32:32.071Z,0.88
2023-02-27T12:35:25.286Z,0.93
2023-02-27T12:38:14.931Z,0.96
2023-02-27T12:41:27.521Z,1.00
2023-02-27T12:44:52.058Z,1.07
2023-02-27T12:48:02.311Z,1.08
2023-02-27T12:51:19.530Z,1.11
2023-02-27T12:54:25.608Z,1.19
2023-02-27T12:57:31.236Z,1.20
2023-02-27T13:00:22.998Z,1.21
2023-02-27T13:03:34.622Z,1.28
2023-02-27T13:06:53.871Z,1.33
2023-02-27T13:09:40.535Z,1.35
2023-02-27T13:12:41.290Z,1.35
2023-02-27T13:15:31.504Z,1.40
2023-02-27T13:18:32.385Z,1.40
2023-02-27T13:21:23.376Z,1.47
2023-02-27T13:24:28.410Z,1.46
2023-02-27T13:27:38.105Z,1.54
2023-02-27T13:30:28.369Z,1.57
2023-02-27T13:33:22.630Z,1.60
2023-02-27T13:36:14.000Z,1.63
2023-02-27T13:39:00.793Z,1.62
2023-02-27T13:41:47.591Z,1.66
2023-02-27T13:44:40.322Z,1.67
2023-02-27T13:47:40.453Z,1.75
2023-02-27T13:50:27.299Z,1.76
2023-02-27T13:53:17.949Z,1.74
2023-02-27T13:56:22.922Z,1.81
2023-02-27T13:59:21.463Z,1.81
2023-02-27T14:02:11.453Z,1.84
2023-02-27T14:05:01.074Z,1.87
2023-02-27T14:07:58.682Z,1.90
2023-02-27T14:11:14.452Z,1.89
2023-02-27T14:14:06.053Z,1.95
2023-02-27T14:16:53.258Z,1.96
2023-02-27T14:19:40.094Z,1.98
2023-02-27T14:22:36.000Z,1.98
2023-02-27T14:25:37.894Z,1.99
2023-02-27T14:28:34.496Z,2.02
2023-02-27T14:31:26.653Z,2.04
2023-02-27T14:34:29.109Z,2.03
2023-02-27T14:37:21.091Z,2.06
2023-02-27T14:40:45.030Z,2.04
2023-02-27T14:43:48.894Z,2.05
2023-02-27T14:46:39.791Z,2.08
2023-02-27T14:49:29.933Z,2.10
2023-02-27T14:52:22.481Z,2.06
2023-02-27T14:55:14.820Z,2.10
2023-02-27T14:58:10.045Z,2.12
2023-02-27T15:01:12.548Z,2.10
2023-02-27T15:04:06.356Z,2.10
2023-02-27T15:06:54.772Z,2.14
2023-02-27T15:09:50.567Z,2.15
2023-02-27T15:12:39.127Z,2.13
2023-02-27T15:15:25.942Z,2.15
2023-02-27T15:18:14.044Z,2.12
2023-02-27T15:21:03.144Z,2.14
2023-02-27T15:24:06.261Z,2.19
2023-02-27T15:27:30.118Z,2.19
2023-02-27T15:30:24.626Z,2.20
2023-02-27T15:33:18.418Z,2.20
2023-02-27T15:36:05.605Z,2.20
2023-02-27T15:39:11.139Z,2.19
2023-02-27T15:42:03.540Z,2.20
2023-02-27T15:44:50.584Z,2.20
2023-02-27T15:47:38.086Z,2.17
2023-02-27T15:50:32.178Z,2.20
2023-02-27T15:53:21.547Z,2.21
2023-02-27T15:56:09.593Z,2.24
2023-02-27T15:59:00.244Z,2.17
2023-02-27T16:01:49.637Z,2.22
2023-02-27T16:04:39.373Z,2.20
2023-02-27T16:07:27.023Z,2.23
2023-02-27T16:10:19.754Z,2.23
2023-02-27T16:13:35.672Z,2.23
2023-02-27T16:16:26.443Z,2.24
2023-02-27T16:19:24.218Z,2.24
2023-02-27T16:22:19.498Z,2.23
2023-02-27T16:25:11.996Z,2.23
2023-02-27T16:27:58.934Z,2.24
2023-02-27T16:30:45.832Z,2.24
2023-02-27T16:33:36.508Z,2.24
2023-02-27T16:36:26.361Z,2.23
2023-02-27T16:39:13.492Z,2.24
2023-02-27T16:42:01.924Z,2.24
2023-02-27T16:44:53.594Z,2.24
2023-02-27T16:47:40.422Z,2.24
2023-02-27T16:50:56.893Z,2.25
2023-02-27T16:53:46.259Z,2.25
2023-02-27T16:56:38.420Z,2.23
2023-02-27T16:59:28.705Z,2.22
2023-02-27T17:02:15.595Z,2.16
2023-02-27T17:05:20.387Z,2.18
2023-02-27T17:08:07.460Z,2.21
2023-02-27T17:10:54.299Z,2.20
2023-02-27T17:13:41.378Z,2.22
2023-02-27T17:16:28.970Z,2.22
2023-02-27T17:19:16.056Z,2.21
2023-02-27T17:22:03.167Z,2.20
2023-02-27T17:24:49.967Z,2.18
2023-02-27T17:27:38.958Z,2.22
2023-02-27T17:30:25.800Z,2.21
2023-02-27T17:33:17.466Z,2.23
2023-02-27T17:36:06.919Z,2.24
2023-02-27T17:38:55.878Z,2.23
2023-02-27T17:41:46.428Z,2.26
2023-02-27T17:44:33.163Z,2.25
2023-02-27T17:47:20.272Z,2.24
2023-02-27T17:50:10.118Z,2.21
2023-02-27T17:52:59.560Z,2.22
2023-02-27T17:55:47.782Z,2.20
2023-02-27T17:58:35.057Z,2.20
2023-02-27T18:01:25.647Z,2.22
2023-02-27T18:04:16.882Z,2.14
2023-02-27T18:07:06.775Z,2.17
2023-02-27T18:09:53.676Z,2.17
2023-02-27T18:12:40.626Z,2.12
2023-02-27T18:15:27.655Z,2.12
2023-02-27T18:18:17.918Z,2.09
2023-02-27T18:21:11.686Z,2.10
2023-02-27T18:24:01.460Z,2.04
2023-02-27T18:26:50.677Z,2.02
2023-02-27T18:29:37.582Z,2.00
2023-02-27T18:32:25.002Z,1.97
2023-02-27T18:35:14.129Z,1.93
2023-02-27T18:38:02.336Z,1.90
2023-02-27T18:40:49.449Z,1.86
2023-02-27T18:43:37.060Z,1.85
2023-02-27T18:46:27.011Z,1.82
2023-02-27T18:49:18.519Z,1.84
2023-02-27T18:52:05.417Z,1.80
2023-02-27T18:54:55.072Z,1.79
2023-02-27T18:57:41.878Z,1.76
2023-02-27T19:00:30.946Z,1.74
2023-02-27T19:04:05.773Z,1.68
2023-02-27T19:11:16.471Z,1.55
2023-02-27T19:14:06.113Z,1.58
2023-02-27T19:16:53.488Z,1.56
2023-02-27T19:19:40.393Z,1.53
2023-02-27T19:26:24.353Z,1.41
2023-02-27T19:29:13.967Z,1.42
2023-02-27T19:32:02.169Z,1.39
2023-02-27T19:34:52.381Z,1.33
2023-02-27T19:41:10.881Z,1.29
2023-02-27T19:43:58.006Z,1.29
2023-02-27T19:46:51.377Z,1.30
2023-02-27T19:49:38.656Z,1.26
2023-02-27T19:52:25.534Z,1.25
2023-02-27T19:55:22.260Z,1.19
2023-02-27T19:58:09.253Z,1.17
2023-02-27T20:01:28.818Z,1.17
2023-02-27T20:04:42.405Z,1.19
2023-02-27T20:07:40.190Z,1.13
2023-02-27T20:10:39.705Z,1.12
2023-02-27T20:14:17.326Z,1.11
2023-02-27T20:20:32.110Z,1.00
2023-02-27T20:26:38.290Z,0.91
2023-02-27T20:29:26.948Z,0.94
2023-02-27T20:32:43.859Z,0.92
2023-02-27T20:35:30.899Z,0.86
2023-02-27T20:38:19.931Z,0.88
2023-02-27T20:41:12.293Z,0.88
2023-02-27T20:44:01.614Z,0.86
2023-02-27T20:46:49.572Z,0.84
2023-02-27T20:49:39.106Z,0.82
2023-02-27T20:52:27.443Z,0.79
2023-02-27T20:55:15.702Z,0.74
2023-02-27T20:58:04.927Z,0.73
2023-02-27T21:00:52.276Z,0.67
2023-02-27T21:03:40.530Z,0.63
2023-02-27T21:06:27.736Z,0.67
2023-02-27T21:09:14.613Z,0.65
2023-02-27T21:12:04.967Z,0.62
2023-02-27T21:14:51.816Z,0.63
2023-02-27T21:17:49.198Z,0.62
2023-02-27T21:20:53.310Z,0.61
2023-02-27T21:27:41.976Z,0.56
2023-02-27T21:30:36.477Z,0.51
2023-02-27T21:33:29.349Z,0.50
2023-02-27T21:36:29.457Z,0.48
2023-02-27T21:39:18.447Z,0.50
2023-02-27T21:42:10.321Z,0.46
2023-02-27T21:45:00.452Z,0.42
2023-02-27T21:47:50.395Z,0.43
2023-02-27T21:50:50.999Z,0.43
2023-02-27T21:53:40.776Z,0.42
2023-02-27T21:56:29.675Z,0.44
2023-02-27T21:59:23.181Z,0.42
2023-02-27T22:02:13.765Z,0.37
2023-02-27T22:05:05.002Z,0.35
2023-02-27T22:07:51.975Z,0.31
2023-02-27T22:10:51.063Z,0.32
2023-02-27T22:13:38.151Z,0.30
2023-02-27T22:16:25.126Z,0.29
2023-02-27T22:19:22.142Z,0.27
2023-02-27T22:22:18.123Z,0.22
2023-02-27T22:25:15.202Z,0.24
2023-02-27T22:28:05.248Z,0.22
2023-02-27T22:30:56.175Z,0.19
2023-02-27T22:33:44.226Z,0.21
2023-02-27T22:36:34.969Z,0.18
2023-02-27T22:39:21.825Z,0.17
2023-02-27T22:42:11.956Z,0.14
2023-02-27T22:44:58.745Z,0.10
2023-02-27T22:47:45.696Z,0.07
2023-02-27T22:50:34.737Z,0.08
2023-02-27T22:53:29.573Z,0.06
2023-02-27T22:56:16.835Z,0.03
2023-02-27T22:59:07.920Z,-0.04
2023-02-27T23:01:55.072Z,0.02
2023-02-27T23:04:41.899Z,-0.01
2023-02-27T23:07:28.744Z,-0.04
2023-02-27T23:10:24.369Z,-0.04
2023-02-27T23:13:11.236Z,-0.05
2023-02-27T23:16:11.709Z,-0.08
2023-02-27T23:19:06.442Z,-0.08
2023-02-27T23:21:53.243Z,-0.10
2023-02-27T23:24:40.637Z,-0.11
2023-02-27T23:27:27.507Z,-0.12
2023-02-27T23:30:16.488Z,-0.14
2023-02-27T23:33:03.284Z,-0.16
2023-02-27T23:35:50.634Z,-0.15
2023-02-27T23:38:40.034Z,-0.19
2023-02-27T23:41:27.844Z,-0.20
2023-02-27T23:44:14.815Z,-0.22
2023-02-27T23:47:01.612Z,-0.25
2023-02-27T23:49:48.380Z,-0.29
2023-02-27T23:52:35.205Z,-0.31
2023-02-27T23:55:22.260Z,-0.31
2023-02-27T23:58:10.198Z,-0.32
